createdAt,value
2019-04-11T00:00:19.524Z,20.03
2019-04-11T00:05:43.366Z,13.63
2019-04-11T00:11:07.013Z,15.53
2019-04-11T00:16:31.036Z,12.80
2019-04-11T00:21:57.322Z,15.47
2019-04-11T00:27:21.746Z,16.73
2019-04-11T00:32:46.495Z,15.53
2019-04-11T00:38:10.243Z,18.17
2019-04-11T00:43:39.122Z,16.87
2019-04-11T00:49:00.007Z,15.70
2019-04-11T00:54:24.800Z,17.40
2019-04-11T00:59:48.817Z,17.93
2019-04-11T01:05:13.049Z,17.90
2019-04-11T01:10:37.795Z,19.43
2019-04-11T01:16:07.165Z,17.43
2019-04-11T01:21:32.724Z,15.03
2019-04-11T01:26:57.384Z,13.67
2019-04-11T01:32:22.071Z,13.17
2019-04-11T01:37:46.177Z,14.23
2019-04-11T01:43:09.982Z,16.40
2019-04-11T01:48:52.137Z,15.93
2019-04-11T01:54:16.349Z,13.70
2019-04-11T01:59:39.987Z,13.63
2019-04-11T02:05:14.884Z,13.50
2019-04-11T02:10:39.201Z,12.97
2019-04-11T02:16:02.985Z,13.00
2019-04-11T02:21:27.468Z,13.23
2019-04-11T02:27:03.028Z,17.73
2019-04-11T02:32:28.635Z,17.97
2019-04-11T02:37:52.157Z,18.07
2019-04-11T02:43:17.614Z,16.53
2019-04-11T02:48:42.742Z,17.70
2019-04-11T02:54:07.488Z,16.40
2019-04-11T02:59:32.372Z,15.87
2019-04-11T03:04:56.655Z,12.43
2019-04-11T03:10:21.478Z,16.97
2019-04-11T03:16:02.120Z,18.33
2019-04-11T03:21:17.954Z,15.67
2019-04-11T03:26:37.786Z,14.70
2019-04-11T03:32:37.209Z,12.23
2019-04-11T03:37:56.620Z,13.03
2019-04-11T03:43:08.905Z,14.10
2019-04-11T03:48:35.554Z,17.00
2019-04-11T03:53:45.101Z,14.87
2019-04-11T03:59:13.676Z,21.90
2019-04-11T04:04:35.291Z,15.80
2019-04-11T04:10:00.490Z,18.07
2019-04-11T04:15:53.226Z,15.67
2019-04-11T04:21:13.511Z,16.97
2019-04-11T04:26:39.061Z,17.73
2019-04-11T04:32:03.108Z,16.47
2019-04-11T04:37:29.553Z,17.17
2019-04-11T04:42:56.165Z,17.87
2019-04-11T04:48:24.196Z,21.47
2019-04-11T04:53:45.200Z,16.37
2019-04-11T04:59:10.049Z,20.97
2019-04-11T05:04:36.100Z,13.80
2019-04-11T05:10:00.934Z,16.43
2019-04-11T05:15:26.128Z,13.63
2019-04-11T05:20:49.653Z,15.43
2019-04-11T05:26:15.000Z,15.17
2019-04-11T05:31:38.967Z,17.03
2019-04-11T05:37:03.941Z,13.30
2019-04-11T05:42:27.758Z,14.07
2019-04-11T05:47:54.947Z,13.97
2019-04-11T05:53:20.347Z,12.73
2019-04-11T05:58:47.011Z,18.17
2019-04-11T06:04:16.156Z,12.43
2019-04-11T06:09:41.700Z,15.10
2019-04-11T06:15:23.023Z,15.97
2019-04-11T06:20:50.108Z,17.23
2019-04-11T06:26:24.888Z,11.03
2019-04-11T06:32:05.576Z,12.37
2019-04-11T06:37:48.249Z,11.47
2019-04-11T06:43:36.265Z,11.90
2019-04-11T06:49:15.740Z,12.37
2019-04-11T06:54:45.493Z,13.47
2019-04-11T07:00:09.666Z,13.50
2019-04-11T07:05:35.189Z,13.30
2019-04-11T07:11:02.949Z,13.50
2019-04-11T07:16:27.552Z,13.93
2019-04-11T07:21:52.658Z,12.57
2019-04-11T07:27:18.111Z,14.43
2019-04-11T07:32:42.850Z,11.73
2019-04-11T07:38:06.575Z,13.43
2019-04-11T07:43:36.202Z,13.43
2019-04-11T07:49:03.619Z,13.03
2019-04-11T07:54:28.508Z,11.30
2019-04-11T08:00:00.558Z,13.57
2019-04-11T08:05:56.691Z,11.97
2019-04-11T08:11:38.041Z,12.63
2019-04-11T08:17:11.579Z,13.33
2019-04-11T08:22:41.605Z,11.63
2019-04-11T08:28:09.336Z,10.33
2019-04-11T08:33:33.266Z,12.90
2019-04-11T08:38:58.541Z,12.37
2019-04-11T08:44:32.118Z,10.90
2019-04-11T08:49:58.443Z,10.23
2019-04-11T08:55:43.524Z,11.80
2019-04-11T09:01:00.827Z,7.50
2019-04-11T09:06:31.086Z,8.50
2019-04-11T09:11:58.392Z,10.13
2019-04-11T09:17:28.259Z,7.70
2019-04-11T09:22:57.380Z,13.70
2019-04-11T09:28:24.942Z,7.10
2019-04-11T09:34:03.735Z,7.37
2019-04-11T09:39:39.235Z,9.90
2019-04-11T09:45:17.326Z,5.60
2019-04-11T09:50:53.237Z,4.73
2019-04-11T09:56:33.310Z,10.23
2019-04-11T10:02:12.860Z,6.47
2019-04-11T10:07:55.843Z,7.03
2019-04-11T10:13:37.817Z,4.17
2019-04-11T10:19:15.767Z,7.27
2019-04-11T10:24:56.629Z,5.60
2019-04-11T10:30:57.844Z,2.93
2019-04-11T10:36:23.723Z,4.03
2019-04-11T10:41:50.634Z,5.27
2019-04-11T10:47:17.912Z,3.50
2019-04-11T10:52:46.770Z,3.87
2019-04-11T10:58:18.385Z,5.83
2019-04-11T11:03:47.738Z,6.87
2019-04-11T11:09:28.306Z,3.77
2019-04-11T11:15:07.239Z,11.57
2019-04-11T11:20:39.306Z,5.67
2019-04-11T11:26:22.581Z,5.90
2019-04-11T11:31:52.461Z,5.17
2019-04-11T11:37:24.927Z,5.00
2019-04-11T11:43:06.889Z,3.60
2019-04-11T11:48:35.401Z,3.07
2019-04-11T11:54:07.727Z,5.23
2019-04-11T11:59:48.715Z,5.13
2019-04-11T12:05:26.695Z,7.50
2019-04-11T12:10:53.330Z,5.83
2019-04-11T12:16:21.518Z,8.00
2019-04-11T12:21:46.345Z,6.37
2019-04-11T12:27:24.533Z,9.53
2019-04-11T12:33:05.546Z,6.70
2019-04-11T12:38:38.944Z,8.67
2019-04-11T12:44:22.562Z,5.87
2019-04-11T12:50:03.654Z,10.83
2019-04-11T12:55:32.178Z,8.03
2019-04-11T13:01:14.282Z,6.67
2019-04-11T13:06:56.493Z,9.37
2019-04-11T13:12:45.678Z,8.70
2019-04-11T13:18:26.578Z,6.87
2019-04-11T13:24:09.333Z,14.17
2019-04-11T13:30:04.083Z,10.20
2019-04-11T13:36:04.422Z,8.83
2019-04-11T13:41:59.505Z,8.23
2019-04-11T13:47:42.416Z,7.57
2019-04-11T13:53:31.077Z,6.00
2019-04-11T13:59:22.935Z,6.27
2019-04-11T14:04:47.481Z,13.30
2019-04-11T14:10:12.572Z,7.20
2019-04-11T14:15:40.512Z,8.57
2019-04-11T14:27:29.327Z,6.20
2019-04-11T14:32:54.543Z,4.13
2019-04-11T14:38:19.813Z,5.60
2019-04-11T14:43:47.945Z,7.47
2019-04-11T14:49:15.543Z,5.30
2019-04-11T14:54:49.219Z,19.37
2019-04-11T15:00:24.957Z,8.90
2019-04-11T15:05:57.121Z,15.70
2019-04-11T15:11:32.220Z,7.50
2019-04-11T15:17:14.786Z,8.83
2019-04-11T15:22:45.256Z,6.53
2019-04-11T15:28:27.489Z,7.90
2019-04-11T15:34:06.613Z,7.77
2019-04-11T15:39:48.575Z,9.77
2019-04-11T15:45:18.430Z,13.40
2019-04-11T15:51:06.449Z,10.40
2019-04-11T15:56:41.848Z,7.20
2019-04-11T16:02:17.903Z,8.27
2019-04-11T16:08:00.938Z,6.43
2019-04-11T16:13:36.327Z,4.73
2019-04-11T16:19:27.585Z,14.97
2019-04-11T16:24:52.783Z,8.20
2019-04-11T16:30:17.879Z,7.47
2019-04-11T16:35:48.555Z,13.93
2019-04-11T16:41:29.844Z,8.43
2019-04-11T16:47:12.055Z,7.27
2019-04-11T16:52:38.349Z,12.03
2019-04-11T16:58:01.762Z,7.43
2019-04-11T17:03:26.223Z,12.27
2019-04-11T17:08:56.404Z,8.57
2019-04-11T17:14:27.938Z,7.50
2019-04-11T17:19:46.592Z,6.23
2019-04-11T17:25:10.678Z,7.63
2019-04-11T17:30:34.025Z,9.47
2019-04-11T17:36:02.124Z,8.67
2019-04-11T17:41:24.052Z,8.43
2019-04-11T17:46:47.666Z,9.93
2019-04-11T17:52:11.438Z,16.57
2019-04-11T17:57:35.134Z,6.57
2019-04-11T18:02:58.895Z,10.53
2019-04-11T18:08:22.750Z,9.20
2019-04-11T18:13:47.326Z,16.13
2019-04-11T18:19:11.902Z,19.97
2019-04-11T18:24:35.651Z,26.23
2019-04-11T18:29:59.969Z,22.53
2019-04-11T18:35:23.618Z,20.63
2019-04-11T18:40:47.944Z,31.00
2019-04-11T18:46:11.586Z,21.47
2019-04-11T18:51:35.190Z,23.33
2019-04-11T18:56:59.262Z,17.17
2019-04-11T19:02:23.354Z,20.63
2019-04-11T19:07:47.510Z,19.57
2019-04-11T19:13:10.956Z,17.20
2019-04-11T19:18:35.352Z,18.70
2019-04-11T19:23:59.686Z,15.13
2019-04-11T19:29:25.169Z,15.20
2019-04-11T19:34:49.114Z,13.37
2019-04-11T19:40:16.148Z,12.90
2019-04-11T19:45:39.098Z,13.60
2019-04-11T19:51:03.916Z,12.80
2019-04-11T19:56:35.726Z,14.10
2019-04-11T20:02:00.407Z,12.67
2019-04-11T20:07:23.815Z,13.27
2019-04-11T20:12:48.284Z,13.70
2019-04-11T20:18:12.738Z,14.50
2019-04-11T20:23:41.458Z,17.30
2019-04-11T20:29:02.940Z,15.00
2019-04-11T20:34:28.197Z,13.70
2019-04-11T20:39:51.639Z,10.60
2019-04-11T20:45:17.680Z,15.73
2019-04-11T20:50:41.370Z,13.57
2019-04-11T20:56:09.690Z,14.27
2019-04-11T21:01:31.302Z,12.43
2019-04-11T21:06:55.885Z,15.73
2019-04-11T21:12:20.324Z,15.13
2019-04-11T21:17:44.660Z,15.90
2019-04-11T21:23:08.021Z,12.13
2019-04-11T21:28:32.855Z,13.77
2019-04-11T21:33:56.225Z,12.90
2019-04-11T21:39:19.651Z,13.10
2019-04-11T21:44:43.123Z,13.43
2019-04-11T21:50:09.598Z,15.03
2019-04-11T21:55:32.808Z,17.00
2019-04-11T22:01:01.934Z,18.50
2019-04-11T22:06:28.047Z,12.80
2019-04-11T22:11:52.140Z,15.77
2019-04-11T22:17:16.152Z,16.33
2019-04-11T22:22:40.821Z,19.57
2019-04-11T22:28:04.432Z,19.37
2019-04-11T22:33:38.572Z,18.97
2019-04-11T22:39:02.971Z,17.73
2019-04-11T22:44:28.697Z,16.87
2019-04-11T22:49:53.251Z,20.60
2019-04-11T22:55:17.677Z,19.53
2019-04-11T23:00:44.881Z,17.23
2019-04-11T23:06:07.604Z,13.73
2019-04-11T23:11:31.978Z,17.73
2019-04-11T23:16:56.177Z,20.80
2019-04-11T23:22:20.377Z,16.13
2019-04-11T23:27:44.852Z,15.53
2019-04-11T23:33:08.915Z,17.47
2019-04-11T23:38:33.119Z,14.70
2019-04-11T23:43:57.379Z,16.97
2019-04-11T23:49:24.757Z,15.30
2019-04-11T23:54:46.217Z,14.60
